St. Gallen, Switzerland
Current Conditions -  °F | °C
As of 7:20 AM on Saturday 20 Dec 2014 (Local Time) from LSZR Reporting Station
Scattered Clouds Scattered Clouds  
Wind Chill: 46°   Ceiling: Unl
Heat Index: 46°   Visibility: 6mi
Dew Point: 43°   Wind: 2mph
Humidity: 87%   Direction: NA
Pressure: 30.3"   Gusts: NA
Location:  47.23°N, 9.23°E
Report Text: LSZR 200620Z VRB02KT 9999 SCT060 08/06 Q1026 NOSIG RMK A
Loading
Personal Weather Stations






























Interactive Weather Map New forecast layout! Learn more

10-Day Weather Forecast

Advertisements
Track Severe Weather on mobile